Terminal Aerodrome Forecast
Issued by NWS Portland, OR

Home | Current Version | Previous Version | Text Only | Print | Product List | Glossary On
Versions: 1 2 3 4 5 6 7 8 9 10 11 12 13 14 15 16 17 18 19 20 21 22 23 24 25 26 27 28 29
508
FTUS46 KPQR 101724
TAFHIO
TAF
KHIO 101724Z 1018/1118 00000KT P6SM SCT050 OVC100
     FM102100 19003KT P6SM BKN050 OVC080
     FM110400 00000KT P6SM OVC050
     FM110900 00000KT 4SM BR SCT015 OVC050
     FM111600 00000KT 2SM BR BKN009 OVC040=

USA.gov is the U.S. government's official web portal to all federal, state and local government web resources and services.